createdAt,value
2022-11-24T00:02:02.405Z,4.65
2022-11-24T00:04:30.831Z,4.66
2022-11-24T00:06:59.619Z,4.67
2022-11-24T00:09:30.065Z,4.70
2022-11-24T00:11:58.431Z,4.66
2022-11-24T00:14:26.855Z,4.68
2022-11-24T00:16:54.902Z,4.67
2022-11-24T00:19:23.295Z,4.66
2022-11-24T00:21:51.515Z,4.66
2022-11-24T00:24:19.594Z,4.67
2022-11-24T00:26:49.546Z,4.71
2022-11-24T00:29:18.028Z,4.70
2022-11-24T00:31:46.349Z,4.72
2022-11-24T00:34:15.440Z,4.71
2022-11-24T00:36:43.931Z,4.74
2022-11-24T00:39:14.364Z,4.75
2022-11-24T00:41:43.245Z,4.75
2022-11-24T00:44:13.151Z,4.71
2022-11-24T00:46:41.774Z,4.68
2022-11-24T00:49:10.232Z,4.66
2022-11-24T00:51:39.010Z,4.61
2022-11-24T00:54:07.589Z,4.62
2022-11-24T00:56:36.044Z,4.71
2022-11-24T00:59:04.466Z,4.66
2022-11-24T01:01:34.178Z,4.84
2022-11-24T01:04:02.869Z,4.88
2022-11-24T01:06:32.721Z,4.84
2022-11-24T01:09:01.482Z,4.82
2022-11-24T01:11:51.332Z,4.83
2022-11-24T01:14:20.354Z,4.92
2022-11-24T01:16:50.461Z,4.88
2022-11-24T01:19:18.946Z,4.84
2022-11-24T01:21:48.243Z,4.80
2022-11-24T01:24:17.337Z,4.78
2022-11-24T01:26:45.931Z,4.76
2022-11-24T01:29:14.320Z,4.75
2022-11-24T01:31:42.378Z,4.61
2022-11-24T01:34:13.113Z,4.57
2022-11-24T01:36:41.576Z,4.60
2022-11-24T01:39:10.014Z,4.42
2022-11-24T01:41:38.343Z,4.41
2022-11-24T01:44:22.883Z,4.60
2022-11-24T01:46:54.475Z,4.60
2022-11-24T01:49:28.455Z,4.51
2022-11-24T01:52:01.160Z,4.55
2022-11-24T01:54:33.242Z,4.37
2022-11-24T01:57:07.015Z,4.26
2022-11-24T01:59:35.510Z,4.31
2022-11-24T02:02:03.798Z,4.41
2022-11-24T02:04:35.833Z,4.39
2022-11-24T02:07:07.324Z,4.35
2022-11-24T02:09:41.942Z,4.30
2022-11-24T02:12:11.133Z,4.32
2022-11-24T02:14:42.002Z,4.31
2022-11-24T02:17:10.396Z,4.33
2022-11-24T02:19:44.367Z,4.25
2022-11-24T02:22:19.796Z,4.37
2022-11-24T02:24:51.749Z,4.42
2022-11-24T02:27:22.797Z,4.44
2022-11-24T02:29:51.580Z,4.35
2022-11-24T02:32:21.408Z,4.40
2022-11-24T02:34:49.872Z,4.42
2022-11-24T02:37:18.376Z,4.52
2022-11-24T02:39:46.594Z,4.59
2022-11-24T02:42:15.383Z,4.75
2022-11-24T02:44:49.274Z,4.68
2022-11-24T02:47:18.285Z,4.69
2022-11-24T02:49:46.558Z,4.74
2022-11-24T02:52:15.928Z,4.75
2022-11-24T02:54:44.339Z,4.77
2022-11-24T02:57:12.731Z,4.79
2022-11-24T02:59:41.129Z,4.79
2022-11-24T03:02:10.857Z,4.78
2022-11-24T03:04:39.167Z,4.81
2022-11-24T03:07:08.097Z,4.77
2022-11-24T03:09:36.450Z,4.81
2022-11-24T03:12:04.782Z,4.81
2022-11-24T03:14:33.361Z,4.83
2022-11-24T03:17:01.903Z,4.83
2022-11-24T03:19:31.361Z,4.82
2022-11-24T03:21:59.791Z,4.85
2022-11-24T03:24:28.406Z,4.87
2022-11-24T03:26:56.596Z,4.87
2022-11-24T03:29:25.068Z,4.89
2022-11-24T03:31:53.367Z,4.90
2022-11-24T03:34:22.416Z,4.92
2022-11-24T03:36:52.236Z,4.91
2022-11-24T03:39:20.455Z,4.96
2022-11-24T03:41:51.438Z,4.93
2022-11-24T03:44:19.790Z,4.98
2022-11-24T03:46:47.965Z,5.00
2022-11-24T03:49:16.458Z,5.06
2022-11-24T03:51:44.819Z,5.12
2022-11-24T03:54:14.402Z,5.15
2022-11-24T03:56:42.861Z,5.24
2022-11-24T03:59:11.446Z,5.27
2022-11-24T04:01:39.853Z,5.24
2022-11-24T04:04:08.886Z,5.29
2022-11-24T04:06:37.176Z,5.29
2022-11-24T04:09:05.302Z,5.32
2022-11-24T04:11:52.488Z,5.34
2022-11-24T04:14:21.760Z,5.41
2022-11-24T04:16:49.992Z,5.45
2022-11-24T04:19:18.090Z,5.47
2022-11-24T04:21:46.635Z,5.54
2022-11-24T04:24:15.240Z,5.61
2022-11-24T04:26:45.216Z,5.68
2022-11-24T04:29:13.662Z,5.77
2022-11-24T04:31:42.091Z,5.87
2022-11-24T04:34:10.215Z,5.97
2022-11-24T04:36:41.095Z,6.05
2022-11-24T04:39:22.853Z,6.15
2022-11-24T04:41:54.935Z,6.27
2022-11-24T04:44:23.242Z,6.39
2022-11-24T04:46:51.807Z,6.49
2022-11-24T04:49:21.160Z,6.58
2022-11-24T04:51:49.560Z,6.65
2022-11-24T04:54:17.983Z,6.73
2022-11-24T04:56:46.320Z,6.78
2022-11-24T04:59:16.731Z,6.79
2022-11-24T05:01:46.226Z,6.88
2022-11-24T05:04:16.291Z,6.92
2022-11-24T05:06:44.720Z,6.95
2022-11-24T05:09:15.445Z,6.97
2022-11-24T05:11:44.458Z,7.05
2022-11-24T05:14:12.794Z,7.07
2022-11-24T05:16:42.326Z,7.11
2022-11-24T05:19:10.689Z,7.16
2022-11-24T05:21:38.776Z,7.25
2022-11-24T05:24:07.825Z,7.34
2022-11-24T05:26:36.675Z,7.39
2022-11-24T05:29:05.492Z,7.46
2022-11-24T05:31:34.165Z,7.52
2022-11-24T05:34:03.857Z,7.57
2022-11-24T05:36:49.421Z,7.59
2022-11-24T05:39:17.947Z,7.63
2022-11-24T05:41:46.771Z,7.69
2022-11-24T05:44:15.459Z,7.73
2022-11-24T05:46:44.226Z,7.83
2022-11-24T05:49:14.091Z,7.83
2022-11-24T05:51:42.523Z,7.93
2022-11-24T05:54:10.841Z,7.95
2022-11-24T05:56:39.076Z,7.99
2022-11-24T05:59:09.988Z,8.02
2022-11-24T06:01:38.885Z,8.08
2022-11-24T06:04:07.480Z,8.11
2022-11-24T06:06:37.375Z,8.12
2022-11-24T06:09:06.129Z,8.11
2022-11-24T06:11:34.614Z,8.01
2022-11-24T06:14:05.802Z,7.94
2022-11-24T06:16:38.257Z,7.81
2022-11-24T06:19:06.916Z,7.71
2022-11-24T06:21:36.814Z,7.59
2022-11-24T06:24:05.568Z,7.52
2022-11-24T06:26:34.116Z,7.42
2022-11-24T06:29:02.736Z,7.38
2022-11-24T06:31:31.067Z,7.33
2022-11-24T06:33:59.268Z,7.27
2022-11-24T06:36:27.988Z,7.30
2022-11-24T06:38:57.891Z,7.34
2022-11-24T06:41:26.333Z,7.35
2022-11-24T06:43:54.494Z,7.41
2022-11-24T06:46:23.300Z,7.51
2022-11-24T06:48:52.923Z,7.59
2022-11-24T06:51:21.287Z,7.66
2022-11-24T06:53:49.669Z,7.73
2022-11-24T06:56:21.544Z,7.77
2022-11-24T06:58:52.217Z,7.78
2022-11-24T07:01:22.612Z,7.83
2022-11-24T07:03:51.897Z,7.90
2022-11-24T07:06:22.214Z,7.92
2022-11-24T07:08:51.244Z,7.96
2022-11-24T07:11:23.826Z,7.98
2022-11-24T07:13:58.353Z,7.99
2022-11-24T07:16:29.641Z,8.05
2022-11-24T07:18:58.705Z,8.09
2022-11-24T07:21:29.011Z,8.12
2022-11-24T07:23:58.861Z,8.17
2022-11-24T07:26:28.701Z,8.18
2022-11-24T07:28:59.509Z,8.23
2022-11-24T07:31:27.828Z,8.25
2022-11-24T07:33:58.121Z,8.31
2022-11-24T07:36:26.618Z,8.34
2022-11-24T07:38:54.624Z,8.38
2022-11-24T07:41:23.173Z,8.41
2022-11-24T07:43:53.203Z,8.37
2022-11-24T07:46:22.116Z,8.36
2022-11-24T07:48:50.622Z,8.34
2022-11-24T07:51:18.949Z,8.34
2022-11-24T07:53:47.522Z,8.32
2022-11-24T07:56:15.787Z,8.29
2022-11-24T07:58:48.327Z,8.22
2022-11-24T08:01:24.609Z,8.04
2022-11-24T08:03:53.044Z,7.90
2022-11-24T08:06:28.719Z,7.73
2022-11-24T08:09:01.291Z,7.64
2022-11-24T08:11:31.648Z,7.60
2022-11-24T08:14:00.136Z,7.56
2022-11-24T08:16:29.862Z,7.54
2022-11-24T08:18:58.778Z,7.58
2022-11-24T08:21:27.260Z,7.57
2022-11-24T08:23:56.295Z,7.56
2022-11-24T08:26:25.433Z,7.56
2022-11-24T08:28:57.077Z,7.55
2022-11-24T08:31:32.937Z,7.60
2022-11-24T08:34:05.902Z,7.63
2022-11-24T08:36:35.307Z,7.67
2022-11-24T08:39:04.238Z,7.75
2022-11-24T08:41:33.942Z,7.81
2022-11-24T08:44:02.449Z,7.82
2022-11-24T08:46:30.759Z,7.85
2022-11-24T08:48:59.128Z,7.89
2022-11-24T08:51:29.050Z,7.90
2022-11-24T08:53:58.489Z,7.91
2022-11-24T08:56:28.209Z,7.93
2022-11-24T08:58:57.626Z,7.93
2022-11-24T09:01:27.354Z,7.95
2022-11-24T09:03:56.021Z,7.97
2022-11-24T09:06:27.235Z,7.96
2022-11-24T09:08:57.671Z,7.96
2022-11-24T09:11:27.728Z,7.96
2022-11-24T09:13:56.418Z,7.96
2022-11-24T09:16:27.164Z,7.92
2022-11-24T09:18:57.147Z,7.93
2022-11-24T09:21:25.941Z,7.91
2022-11-24T09:23:57.218Z,7.90
2022-11-24T09:26:28.039Z,7.86
2022-11-24T09:28:57.634Z,7.86
2022-11-24T09:31:27.360Z,7.89
2022-11-24T09:33:57.179Z,7.91
2022-11-24T09:36:26.334Z,7.93
2022-11-24T09:38:56.142Z,7.96
2022-11-24T09:41:47.252Z,8.15
2022-11-24T09:44:57.705Z,8.37
2022-11-24T09:47:39.704Z,8.69
2022-11-24T09:50:15.407Z,8.88
2022-11-24T09:52:50.694Z,8.89
2022-11-24T09:55:41.007Z,8.71
2022-11-24T09:58:35.911Z,8.74
2022-11-24T10:01:09.344Z,8.61
2022-11-24T10:03:41.949Z,8.51
2022-11-24T10:06:20.649Z,8.38
2022-11-24T10:09:06.925Z,8.37
2022-11-24T10:11:44.261Z,8.43
2022-11-24T10:14:32.682Z,8.47
2022-11-24T10:17:13.131Z,8.57
2022-11-24T10:19:48.582Z,8.61
2022-11-24T10:22:31.684Z,8.59
2022-11-24T10:25:10.224Z,8.65
2022-11-24T10:27:43.231Z,8.73
2022-11-24T10:30:21.098Z,8.73
2022-11-24T10:32:51.364Z,8.79
2022-11-24T10:35:22.601Z,8.91
2022-11-24T10:37:58.903Z,9.13
2022-11-24T10:43:27.985Z,9.83
2022-11-24T10:45:57.397Z,10.10
2022-11-24T10:48:28.692Z,10.27
2022-11-24T10:51:17.288Z,10.47
2022-11-24T10:53:47.377Z,10.47
2022-11-24T10:56:15.653Z,10.27
2022-11-24T10:58:45.364Z,10.15
2022-11-24T11:01:34.380Z,10.05
2022-11-24T11:04:02.886Z,10.06
2022-11-24T11:06:32.836Z,10.20
2022-11-24T11:09:19.451Z,10.40
2022-11-24T11:11:49.229Z,10.54
2022-11-24T11:14:33.053Z,10.43
2022-11-24T11:17:01.545Z,10.49
2022-11-24T11:19:55.536Z,10.47
2022-11-24T11:22:28.354Z,10.52
2022-11-24T11:25:07.434Z,10.41
2022-11-24T11:27:35.761Z,10.48
2022-11-24T11:36:15.065Z,10.44
2022-11-24T11:38:45.208Z,10.45
2022-11-24T11:41:21.622Z,10.50
2022-11-24T11:43:53.634Z,10.53
2022-11-24T11:46:26.396Z,10.53
2022-11-24T11:48:55.009Z,10.36
2022-11-24T11:51:37.718Z,10.11
2022-11-24T11:54:15.342Z,10.27
2022-11-24T11:56:45.959Z,10.58
2022-11-24T11:59:50.254Z,10.58
2022-11-24T12:02:54.014Z,10.72
2022-11-24T12:05:32.348Z,10.83
2022-11-24T12:08:12.514Z,10.96
2022-11-24T12:10:51.876Z,10.87
2022-11-24T12:13:47.834Z,10.73
2022-11-24T12:16:31.013Z,10.68
2022-11-24T12:19:24.960Z,10.68
2022-11-24T12:21:59.937Z,10.74
2022-11-24T12:24:38.437Z,10.70
2022-11-24T12:27:22.271Z,10.49
2022-11-24T12:30:05.325Z,10.43
2022-11-24T12:32:59.954Z,10.24
2022-11-24T12:35:37.542Z,9.99
2022-11-24T12:38:21.055Z,9.76
2022-11-24T12:41:39.960Z,9.63
2022-11-24T12:44:01.294Z,9.51
2022-11-24T12:46:37.474Z,9.39
2022-11-24T12:49:16.600Z,9.27
2022-11-24T12:52:01.361Z,9.11
2022-11-24T12:54:38.227Z,9.12
2022-11-24T12:57:11.535Z,9.06
2022-11-24T12:59:45.600Z,9.04
2022-11-24T13:02:25.812Z,8.98
2022-11-24T13:05:02.241Z,9.02
2022-11-24T13:07:41.275Z,9.14
2022-11-24T13:10:54.657Z,9.18
2022-11-24T13:13:25.274Z,9.29
2022-11-24T13:19:10.397Z,9.33
2022-11-24T13:21:52.850Z,9.18
2022-11-24T13:24:30.869Z,9.16
2022-11-24T13:27:27.753Z,9.00
2022-11-24T13:29:56.561Z,9.01
2022-11-24T13:32:48.863Z,9.11
2022-11-24T13:35:17.535Z,9.25
2022-11-24T13:37:51.469Z,9.19
2022-11-24T13:41:06.335Z,9.05
2022-11-24T13:43:33.771Z,8.94
2022-11-24T13:46:03.828Z,8.90
2022-11-24T13:49:04.015Z,8.75
2022-11-24T13:51:32.668Z,8.75
2022-11-24T13:54:02.845Z,8.57
2022-11-24T13:56:33.182Z,8.59
2022-11-24T13:59:04.841Z,8.55
2022-11-24T14:01:35.757Z,8.48
2022-11-24T14:04:34.203Z,8.38
2022-11-24T14:07:09.078Z,8.42
2022-11-24T14:09:43.638Z,8.35
2022-11-24T14:12:19.247Z,8.31
2022-11-24T14:14:49.459Z,8.32
2022-11-24T14:17:23.470Z,8.20
2022-11-24T14:19:53.999Z,8.18
2022-11-24T14:22:24.478Z,8.13
2022-11-24T14:24:57.865Z,8.06
2022-11-24T14:27:32.184Z,8.12
2022-11-24T14:30:03.777Z,8.08
2022-11-24T14:32:33.063Z,7.96
2022-11-24T14:35:01.722Z,7.86
2022-11-24T14:37:30.093Z,7.75
2022-11-24T14:39:58.455Z,7.64
2022-11-24T14:42:29.067Z,7.41
2022-11-24T14:45:01.508Z,7.29
2022-11-24T14:47:32.653Z,7.17
2022-11-24T14:50:13.016Z,7.01
2022-11-24T14:52:53.657Z,6.94
2022-11-24T14:55:29.152Z,6.83
2022-11-24T14:57:58.357Z,6.72
2022-11-24T15:00:33.347Z,6.60
2022-11-24T15:03:20.585Z,6.49
2022-11-24T15:05:55.006Z,6.42
2022-11-24T15:08:25.311Z,6.40
2022-11-24T15:11:00.140Z,6.29
2022-11-24T15:13:30.498Z,6.28
2022-11-24T15:16:03.873Z,6.24
2022-11-24T15:18:39.037Z,6.15
2022-11-24T15:21:08.012Z,6.15
2022-11-24T15:23:37.773Z,6.16
2022-11-24T15:26:30.770Z,6.12
2022-11-24T15:29:01.158Z,6.08
2022-11-24T15:31:31.294Z,6.04
2022-11-24T15:33:59.781Z,5.96
2022-11-24T15:36:27.817Z,5.92
2022-11-24T15:38:56.174Z,5.89
2022-11-24T15:41:29.485Z,5.95
2022-11-24T15:44:00.691Z,5.91
2022-11-24T15:46:38.125Z,5.80
2022-11-24T15:49:08.099Z,5.71
2022-11-24T15:51:38.867Z,5.69
2022-11-24T15:54:07.372Z,5.66
2022-11-24T15:56:39.051Z,5.64
2022-11-24T15:59:07.704Z,5.62
2022-11-24T16:01:37.497Z,5.60
2022-11-24T16:04:06.183Z,5.58
2022-11-24T16:06:34.942Z,5.55
2022-11-24T16:09:03.554Z,5.55
2022-11-24T16:11:32.527Z,5.53
2022-11-24T16:14:01.175Z,5.53
2022-11-24T16:16:30.089Z,5.49
2022-11-24T16:19:00.384Z,5.46
2022-11-24T16:21:28.868Z,5.46
2022-11-24T16:23:57.186Z,5.43
2022-11-24T16:26:25.564Z,5.40
2022-11-24T16:28:54.283Z,5.45
2022-11-24T16:31:22.959Z,5.51
2022-11-24T16:33:51.283Z,5.57
2022-11-24T16:36:21.349Z,5.61
2022-11-24T16:38:49.591Z,5.71
2022-11-24T16:41:18.164Z,5.78
2022-11-24T16:43:46.575Z,5.85
2022-11-24T16:46:18.762Z,5.87
2022-11-24T16:48:48.566Z,5.93
2022-11-24T16:51:19.803Z,5.94
2022-11-24T16:53:58.962Z,5.95
2022-11-24T16:56:27.493Z,6.03
2022-11-24T16:58:56.321Z,6.04
2022-11-24T17:01:26.012Z,6.05
2022-11-24T17:03:54.762Z,6.07
2022-11-24T17:06:23.610Z,6.09
2022-11-24T17:08:54.323Z,6.14
2022-11-24T17:11:25.826Z,6.15
2022-11-24T17:13:54.646Z,6.13
2022-11-24T17:16:26.203Z,6.10
2022-11-24T17:18:55.448Z,6.09
2022-11-24T17:21:26.052Z,6.02
2022-11-24T17:23:57.572Z,6.03
2022-11-24T17:26:26.463Z,5.99
2022-11-24T17:28:56.110Z,5.95
2022-11-24T17:31:26.258Z,5.92
2022-11-24T17:33:57.364Z,5.92
2022-11-24T17:36:26.202Z,5.92
2022-11-24T17:38:55.970Z,5.93
2022-11-24T17:41:24.674Z,5.98
2022-11-24T17:43:55.584Z,6.00
2022-11-24T17:46:24.777Z,6.02
2022-11-24T17:48:53.398Z,6.05
2022-11-24T17:51:23.767Z,6.06
2022-11-24T17:53:53.428Z,6.10
2022-11-24T17:56:25.790Z,6.04
2022-11-24T17:58:55.851Z,6.03
2022-11-24T18:01:24.660Z,6.00
2022-11-24T18:03:54.424Z,6.01
2022-11-24T18:06:25.605Z,6.00
2022-11-24T18:08:55.398Z,6.02
2022-11-24T18:11:30.947Z,5.96
2022-11-24T18:14:03.307Z,5.95
2022-11-24T18:16:33.610Z,5.96
2022-11-24T18:19:11.610Z,5.92
2022-11-24T18:21:41.705Z,5.89
2022-11-24T18:24:11.388Z,5.88
2022-11-24T18:26:42.584Z,5.87
2022-11-24T18:29:12.315Z,5.87
2022-11-24T18:31:41.015Z,5.90
2022-11-24T18:34:09.939Z,5.92
2022-11-24T18:36:38.420Z,5.91
2022-11-24T18:39:09.686Z,5.91
2022-11-24T18:41:38.177Z,5.93
2022-11-24T18:44:08.708Z,5.92
2022-11-24T18:46:37.473Z,5.91
2022-11-24T18:49:07.104Z,5.91
2022-11-24T18:51:36.182Z,5.92
2022-11-24T18:54:05.594Z,5.91
2022-11-24T18:56:35.072Z,5.92
2022-11-24T18:59:03.386Z,5.91
2022-11-24T19:01:33.450Z,5.88
2022-11-24T19:04:03.862Z,5.93
2022-11-24T19:06:34.031Z,5.89
2022-11-24T19:09:06.358Z,5.85
2022-11-24T19:11:37.181Z,5.87
2022-11-24T19:14:07.781Z,5.84
2022-11-24T19:16:38.568Z,5.87
2022-11-24T19:19:07.203Z,5.92
2022-11-24T19:21:40.200Z,5.94
2022-11-24T19:24:11.250Z,5.97
2022-11-24T19:26:40.641Z,5.99
2022-11-24T19:29:10.234Z,6.02
2022-11-24T19:31:40.620Z,6.02
2022-11-24T19:34:09.430Z,6.05
2022-11-24T19:36:46.485Z,6.06
2022-11-24T19:39:16.826Z,6.11
2022-11-24T19:41:45.219Z,6.12
2022-11-24T19:44:14.431Z,6.13
2022-11-24T19:46:44.345Z,6.17
2022-11-24T19:49:13.665Z,6.17
2022-11-24T19:51:42.333Z,6.17
2022-11-24T19:54:13.993Z,6.14
2022-11-24T19:56:42.930Z,6.13
2022-11-24T19:59:15.084Z,6.14
2022-11-24T20:01:47.047Z,6.10
2022-11-24T20:04:16.606Z,6.03
2022-11-24T20:06:47.035Z,5.98
2022-11-24T20:09:17.433Z,5.98
2022-11-24T20:11:46.660Z,5.94
2022-11-24T20:14:16.551Z,5.91
2022-11-24T20:16:48.052Z,5.91
2022-11-24T20:19:18.249Z,5.88
2022-11-24T20:21:49.447Z,5.83
2022-11-24T20:24:19.359Z,5.84
2022-11-24T20:26:51.643Z,5.82
2022-11-24T20:29:20.415Z,5.80
2022-11-24T20:31:52.892Z,5.78
2022-11-24T20:34:22.802Z,5.72
2022-11-24T20:36:53.001Z,5.71
2022-11-24T20:39:25.553Z,5.69
2022-11-24T20:41:55.020Z,5.69
2022-11-24T20:44:26.811Z,5.69
2022-11-24T20:47:00.469Z,5.72
2022-11-24T20:49:30.103Z,5.72
2022-11-24T20:51:58.723Z,5.74
2022-11-24T20:54:27.079Z,5.72
2022-11-24T20:56:56.272Z,5.72
2022-11-24T20:59:26.103Z,5.68
2022-11-24T21:01:56.343Z,5.66
2022-11-24T21:04:28.307Z,5.60
2022-11-24T21:06:57.284Z,5.62
2022-11-24T21:09:27.375Z,5.62
2022-11-24T21:11:55.954Z,5.64
2022-11-24T21:14:25.305Z,5.67
2022-11-24T21:16:53.882Z,5.70
2022-11-24T21:19:22.566Z,5.70
2022-11-24T21:21:52.734Z,5.68
2022-11-24T21:24:21.910Z,5.68
2022-11-24T21:26:52.788Z,5.63
2022-11-24T21:29:23.815Z,5.60
2022-11-24T21:31:52.988Z,5.58
2022-11-24T21:34:21.733Z,5.50
2022-11-24T21:36:51.566Z,5.44
2022-11-24T21:39:20.598Z,5.38
2022-11-24T21:41:49.282Z,5.32
2022-11-24T21:44:17.598Z,5.29
2022-11-24T21:46:52.754Z,5.26
2022-11-24T21:49:24.835Z,5.24
2022-11-24T21:51:56.109Z,5.23
2022-11-24T21:54:24.750Z,5.23
2022-11-24T21:56:55.581Z,5.24
2022-11-24T21:59:24.402Z,5.24
2022-11-24T22:01:53.141Z,5.24
2022-11-24T22:04:21.617Z,5.25
2022-11-24T22:06:53.335Z,5.28
2022-11-24T22:09:23.318Z,5.33
2022-11-24T22:11:52.691Z,5.35
2022-11-24T22:14:21.166Z,5.41
2022-11-24T22:16:49.841Z,5.41
2022-11-24T22:19:19.184Z,5.48
2022-11-24T22:21:48.785Z,5.49
2022-11-24T22:24:18.414Z,5.50
2022-11-24T22:26:49.793Z,5.51
2022-11-24T22:29:18.346Z,5.56
2022-11-24T22:31:46.964Z,5.60
2022-11-24T22:34:15.331Z,5.64
2022-11-24T22:36:44.059Z,5.68
2022-11-24T22:39:13.813Z,5.71
2022-11-24T22:41:42.442Z,5.73
2022-11-24T22:44:13.134Z,5.75
2022-11-24T22:46:41.585Z,5.79
2022-11-24T22:49:11.109Z,5.78
2022-11-24T22:51:40.841Z,5.84
2022-11-24T22:54:13.217Z,5.86
2022-11-24T22:56:41.865Z,5.79
2022-11-24T22:59:11.898Z,5.82
2022-11-24T23:01:40.305Z,5.80
2022-11-24T23:04:09.006Z,5.77
2022-11-24T23:06:37.401Z,5.74
2022-11-24T23:09:06.880Z,5.66
2022-11-24T23:11:38.967Z,5.64
2022-11-24T23:14:09.734Z,5.55
2022-11-24T23:16:39.694Z,5.48
2022-11-24T23:19:08.790Z,5.40
2022-11-24T23:21:39.779Z,5.25
2022-11-24T23:24:09.482Z,5.18
2022-11-24T23:26:40.894Z,5.09
2022-11-24T23:29:10.998Z,5.04
2022-11-24T23:31:41.205Z,5.00
2022-11-24T23:34:10.231Z,4.95
2022-11-24T23:36:38.895Z,4.93
2022-11-24T23:39:08.965Z,4.92
2022-11-24T23:41:37.809Z,4.92
2022-11-24T23:44:06.399Z,4.93
2022-11-24T23:46:34.823Z,4.87
2022-11-24T23:49:04.835Z,4.81
2022-11-24T23:51:34.309Z,4.81
2022-11-24T23:54:02.925Z,4.76
2022-11-24T23:56:33.577Z,4.75
2022-11-24T23:59:03.335Z,4.74
